Time;durP1;ratioP1;P1;durP2;ratioP2;P2;SDS_P1;SDS_P2;PMS_P1;PMS_P2;Temp;Humidity;BMP_temperature;BMP_pressure;BME280_temperature;BME280_humidity;BME280_pressure;Samples;Min_cycle;Max_cycle;Signal;HPM_P1;HPM_P2
2023/04/14 00:47:30;;;;;;;12.18;6.20;;;;;;;12.75;53.84;100692.28;5043037;28;20118;-47
2023/04/14 00:49:56;;;;;;;6.15;3.33;;;;;;;12.77;53.80;100700.94;5036498;28;20041;-48
2023/04/14 00:52:23;;;;;;;11.77;5.35;;;;;;;12.79;53.72;100690.25;5046362;28;20091;-47
2023/04/14 00:54:48;;;;;;;11.40;6.15;;;;;;;12.78;53.79;100685.94;5044933;28;20046;-49
2023/04/14 00:57:14;;;;;;;11.23;6.47;;;;;;;12.75;54.00;100687.00;5036102;28;20029;-47
2023/04/14 00:59:39;;;;;;;12.57;5.63;;;;;;;12.72;53.89;100689.84;5044933;28;20112;-48
2023/04/14 01:02:05;;;;;;;13.90;5.78;;;;;;;12.71;53.95;100693.44;5039951;28;20021;-52
2023/04/14 01:04:31;;;;;;;14.05;6.72;;;;;;;12.69;54.08;100703.25;5040972;28;20112;-49
2023/04/14 01:06:57;;;;;;;11.65;6.18;;;;;;;12.70;54.01;100697.00;5038649;28;20044;-53
2023/04/14 01:09:23;;;;;;;9.70;5.85;;;;;;;12.71;54.09;100698.72;5043015;28;20040;-49
2023/04/14 01:12:33;;;;;;;11.10;6.25;;;;;;;12.74;54.12;100695.88;5042497;28;20033;-48
2023/04/14 01:15:10;;;;;;;10.90;5.70;;;;;;;12.73;54.22;100699.44;4989028;28;20044;-49
2023/04/14 01:17:44;;;;;;;10.77;5.38;;;;;;;12.71;54.10;100706.63;5042220;28;20112;-51
2023/04/14 01:20:27;;;;;;;12.80;5.75;;;;;;;12.73;54.23;100699.44;5040013;28;20437;-52
2023/04/14 01:22:57;;;;;;;8.50;4.75;;;;;;;12.69;54.12;100697.97;5041941;28;20033;-50
2023/04/14 01:25:44;;;;;;;6.93;3.30;;;;;;;12.64;54.32;100694.78;5043724;28;20037;-48
2023/04/14 01:28:31;;;;;;;9.07;4.68;;;;;;;12.61;54.34;100695.84;5039945;28;20025;-51
2023/04/14 01:31:15;;;;;;;8.75;4.07;;;;;;;12.62;54.31;100707.25;5035578;28;20559;-50
2023/04/14 01:33:43;;;;;;;10.35;5.15;;;;;;;12.63;54.26;100720.34;5039834;28;20502;-51
2023/04/14 01:36:18;;;;;;;11.30;6.03;;;;;;;12.67;54.22;100720.97;5041142;28;20048;-48
2023/04/14 01:38:47;;;;;;;13.38;6.35;;;;;;;12.67;54.32;100722.78;5042855;28;20480;-47
2023/04/14 01:41:15;;;;;;;10.88;5.88;;;;;;;12.70;54.26;100726.06;5037189;28;20044;-48
2023/04/14 01:43:44;;;;;;;8.50;5.25;;;;;;;12.73;54.33;100731.13;5044984;28;20051;-48
2023/04/14 01:46:14;;;;;;;10.63;5.30;;;;;;;12.77;54.22;100732.63;5040755;28;20145;-47
2023/04/14 01:48:41;;;;;;;6.55;2.97;;;;;;;12.73;54.34;100731.13;5036920;28;20037;-50
2023/04/14 01:51:08;;;;;;;13.40;5.35;;;;;;;12.74;54.31;100727.53;5042271;28;20033;-51
2023/04/14 01:53:37;;;;;;;10.80;5.43;;;;;;;12.74;54.34;100731.97;5049112;28;20051;-48
2023/04/14 01:56:05;;;;;;;13.25;6.30;;;;;;;12.75;54.41;100738.94;5041639;28;20399;-47
2023/04/14 01:58:31;;;;;;;10.45;5.20;;;;;;;12.77;54.33;100740.56;5045229;28;20033;-50
2023/04/14 02:00:58;;;;;;;10.63;5.38;;;;;;;12.77;54.19;100737.03;5047477;28;20021;-50
2023/04/14 02:03:24;;;;;;;10.70;5.03;;;;;;;12.76;54.32;100728.28;5045395;28;20051;-53
2023/04/14 02:05:52;;;;;;;9.30;5.60;;;;;;;12.74;54.36;100738.09;5042152;28;20129;-49
2023/04/14 02:08:20;;;;;;;12.40;4.95;;;;;;;12.73;54.39;100735.56;5048304;28;20029;-51
2023/04/14 02:10:48;;;;;;;10.77;6.05;;;;;;;12.74;54.33;100732.81;5045056;28;20395;-49
2023/04/14 02:13:17;;;;;;;12.07;6.03;;;;;;;12.72;54.25;100734.72;5040195;28;20033;-47
2023/04/14 02:15:43;;;;;;;11.02;5.68;;;;;;;12.71;54.48;100725.09;5038329;28;20033;-49
2023/04/14 02:18:09;;;;;;;12.32;6.88;;;;;;;12.67;54.37;100726.25;5045867;28;20025;-50
2023/04/14 02:20:42;;;;;;;12.90;6.50;;;;;;;12.66;54.41;100729.84;5038484;28;21564;-48
2023/04/14 02:23:08;;;;;;;13.18;7.22;;;;;;;12.60;54.54;100722.34;5039820;28;20032;-49
2023/04/14 02:25:36;;;;;;;14.60;6.32;;;;;;;12.60;54.38;100728.44;5037225;28;20037;-50
2023/04/14 02:28:19;;;;;;;9.10;5.63;;;;;;;12.57;54.63;100719.91;5035556;28;20032;-48
2023/04/14 02:30:49;;;;;;;17.05;7.93;;;;;;;12.53;54.64;100721.91;5038842;28;20036;-49
2023/04/14 02:33:20;;;;;;;14.50;7.60;;;;;;;12.46;54.83;100713.56;5038362;28;20038;-53
2023/04/14 02:36:12;;;;;;;13.87;7.30;;;;;;;12.44;55.21;100717.22;5041978;28;20044;-48
2023/04/14 02:38:45;;;;;;;14.05;8.57;;;;;;;12.38;55.19;100729.03;5028312;28;20060;-47
2023/04/14 02:41:16;;;;;;;14.50;8.35;;;;;;;12.38;55.21;100734.31;5032815;28;20021;-47
2023/04/14 02:43:48;;;;;;;17.20;8.85;;;;;;;12.39;55.22;100737.81;5041738;28;20052;-50
2023/04/14 02:46:16;;;;;;;17.85;8.80;;;;;;;12.39;55.31;100749.19;5041205;28;20402;-49
2023/04/14 02:48:45;;;;;;;14.27;8.15;;;;;;;12.43;55.38;100742.78;5042589;28;20033;-52
2023/04/14 02:51:13;;;;;;;19.33;9.35;;;;;;;12.47;55.28;100751.34;5042926;28;20490;-51
2023/04/14 02:53:39;;;;;;;19.25;8.93;;;;;;;12.48;55.38;100748.56;5043044;28;20041;-49
2023/04/14 02:56:06;;;;;;;12.90;7.80;;;;;;;12.53;55.12;100750.06;5044580;28;20040;-48
2023/04/14 02:58:32;;;;;;;17.45;7.80;;;;;;;12.56;55.11;100744.59;5042040;28;20029;-51
2023/04/14 03:00:59;;;;;;;13.55;7.60;;;;;;;12.57;55.20;100747.13;5042181;28;20017;-48
2023/04/14 03:03:27;;;;;;;10.23;4.82;;;;;;;12.59;55.14;100750.53;5038216;28;20040;-48
2023/04/14 03:05:53;;;;;;;11.35;6.75;;;;;;;12.53;55.24;100753.59;5034844;28;20164;-49
2023/04/14 03:08:19;;;;;;;10.52;5.80;;;;;;;12.49;55.36;100757.34;5045473;28;20116;-51
2023/04/14 03:10:46;;;;;;;13.82;6.55;;;;;;;12.49;55.28;100758.19;5044115;28;20033;-48
2023/04/14 03:13:14;;;;;;;15.07;6.63;;;;;;;12.52;55.22;100764.22;5038161;28;20033;-51
2023/04/14 03:15:40;;;;;;;12.48;7.07;;;;;;;12.56;55.26;100765.72;5041964;28;20143;-51
2023/04/14 03:18:07;;;;;;;13.55;6.00;;;;;;;12.56;55.11;100757.81;5041890;28;20021;-50
2023/04/14 03:20:33;;;;;;;15.63;7.13;;;;;;;12.63;55.18;100765.22;5045292;28;20654;-49
2023/04/14 03:23:06;;;;;;;13.88;6.22;;;;;;;12.65;55.25;100765.09;5045094;28;20044;-50
2023/04/14 03:25:37;;;;;;;11.77;6.22;;;;;;;12.68;55.11;100761.44;5042337;28;20120;-48
2023/04/14 03:28:08;;;;;;;16.90;6.18;;;;;;;12.69;55.06;100756.03;5042591;28;20032;-49
2023/04/14 03:30:36;;;;;;;11.70;6.35;;;;;;;12.72;55.10;100750.56;5035220;28;20426;-49
2023/04/14 03:33:07;;;;;;;11.80;6.30;;;;;;;12.73;55.04;100741.69;5046730;28;20055;-50
2023/04/14 03:35:35;;;;;;;14.95;7.35;;;;;;;12.73;55.18;100746.97;5046946;28;20124;-49
2023/04/14 03:38:04;;;;;;;9.43;6.65;;;;;;;12.71;55.13;100738.31;5041645;28;20036;-53
2023/04/14 03:40:33;;;;;;;13.23;6.90;;;;;;;12.67;55.04;100736.81;5034867;28;20021;-47
2023/04/14 03:43:01;;;;;;;13.10;6.28;;;;;;;12.47;55.51;100748.69;5043007;28;20028;-48
2023/04/14 03:45:27;;;;;;;12.98;6.25;;;;;;;12.33;55.69;100750.44;5044117;28;20126;-50
2023/04/14 03:48:01;;;;;;;9.15;5.30;;;;;;;12.30;55.54;100747.16;5036418;28;20032;-52
2023/04/14 03:50:30;;;;;;;9.00;5.72;;;;;;;12.31;55.68;100736.50;5040795;28;20404;-52
2023/04/14 03:52:59;;;;;;;13.43;8.15;;;;;;;12.29;55.96;100740.19;5042618;28;20106;-49
2023/04/14 03:55:26;;;;;;;9.35;5.90;;;;;;;12.27;55.91;100739.44;5040837;28;20040;-49
2023/04/14 03:57:56;;;;;;;10.25;6.45;;;;;;;12.18;56.38;100736.44;5038802;28;20102;-50
2023/04/14 04:00:24;;;;;;;12.25;6.70;;;;;;;12.12;56.42;100734.22;5039177;28;20052;-47
2023/04/14 04:02:50;;;;;;;6.57;3.95;;;;;;;12.06;56.56;100733.78;5039811;28;20033;-48
2023/04/14 04:05:16;;;;;;;10.27;5.60;;;;;;;12.08;56.67;100730.06;5037621;28;20028;-50
2023/04/14 04:07:43;;;;;;;8.93;5.25;;;;;;;12.07;56.67;100733.66;5035381;28;20125;-49
2023/04/14 04:10:12;;;;;;;8.63;5.60;;;;;;;12.18;56.65;100730.34;5036893;28;20545;-48
2023/04/14 04:12:40;;;;;;;11.43;6.15;;;;;;;12.19;56.79;100735.50;5035320;28;20045;-48
2023/04/14 04:15:07;;;;;;;13.68;6.88;;;;;;;12.26;57.03;100743.03;5042098;28;20076;-49
2023/04/14 04:17:33;;;;;;;10.35;6.28;;;;;;;12.28;57.13;100751.69;5046061;28;22303;-49
2023/04/14 04:20:03;;;;;;;15.20;8.57;;;;;;;12.28;57.17;100743.78;5041193;28;20036;-50
2023/04/14 04:22:30;;;;;;;15.70;8.85;;;;;;;12.24;57.36;100744.91;5045455;28;20033;-51
2023/04/14 04:24:57;;;;;;;15.73;7.70;;;;;;;12.27;57.31;100742.09;5043750;28;20062;-50
2023/04/14 04:27:23;;;;;;;13.02;7.82;;;;;;;12.29;57.37;100737.56;5040410;28;20033;-48
2023/04/14 04:29:49;;;;;;;11.63;8.57;;;;;;;12.30;57.44;100736.63;5041244;28;20091;-49
2023/04/14 04:32:15;;;;;;;13.20;7.60;;;;;;;12.28;57.53;100736.69;5039089;28;20455;-49
2023/04/14 04:34:42;;;;;;;17.38;8.60;;;;;;;12.26;57.64;100732.47;5037698;28;20040;-52
2023/04/14 04:37:09;;;;;;;22.50;12.23;;;;;;;12.25;57.63;100738.69;5045110;28;20141;-50
2023/04/14 04:39:35;;;;;;;22.60;11.48;;;;;;;12.27;57.60;100740.28;5048447;28;20094;-49
2023/04/14 04:42:04;;;;;;;16.08;9.10;;;;;;;12.28;57.55;100741.97;5034062;28;20028;-48
2023/04/14 04:44:31;;;;;;;12.52;8.30;;;;;;;12.29;57.54;100729.66;5046367;28;20097;-49
2023/04/14 04:46:56;;;;;;;18.92;9.32;;;;;;;12.26;57.90;100738.59;5042752;28;20400;-48
2023/04/14 04:49:22;;;;;;;12.95;9.70;;;;;;;12.22;57.93;100734.47;5040550;28;20033;-52
2023/04/14 04:51:48;;;;;;;16.00;9.95;;;;;;;12.22;58.00;100737.13;5042842;28;20027;-49
2023/04/14 04:54:14;;;;;;;20.05;10.05;;;;;;;12.24;58.16;100737.00;5045317;28;20048;-48
2023/04/14 04:56:40;;;;;;;14.88;8.93;;;;;;;12.29;58.22;100742.84;5047199;28;20047;-48
2023/04/14 04:59:05;;;;;;;17.45;11.30;;;;;;;12.31;58.13;100743.59;5040228;28;20028;-48
2023/04/14 05:01:31;;;;;;;15.45;10.15;;;;;;;12.31;58.11;100740.94;5041368;28;20048;-48
2023/04/14 05:03:56;;;;;;;12.90;9.52;;;;;;;12.34;58.35;100746.88;5037388;28;20395;-50
2023/04/14 05:06:22;;;;;;;13.57;9.70;;;;;;;12.35;58.42;100752.97;5032668;28;20033;-49
2023/04/14 05:08:51;;;;;;;29.65;16.83;;;;;;;12.38;58.44;100750.13;5045304;28;20510;-47
2023/04/14 05:11:16;;;;;;;22.75;11.55;;;;;;;12.37;58.64;100744.97;5040685;28;20029;-48
2023/04/14 05:13:42;;;;;;;18.60;10.73;;;;;;;12.38;58.52;100744.88;5045012;28;20033;-47
2023/04/14 05:16:09;;;;;;;16.27;10.65;;;;;;;12.37;58.61;100745.81;5040716;28;20041;-49
2023/04/14 05:18:37;;;;;;;18.40;10.38;;;;;;;12.35;58.39;100747.69;5043948;28;20051;-53
2023/04/14 05:21:11;;;;;;;15.98;9.77;;;;;;;12.38;58.58;100747.50;5041338;28;20071;-48
2023/04/14 05:23:38;;;;;;;18.13;9.68;;;;;;;12.39;58.54;100749.19;5038746;28;20495;-51
2023/04/14 05:26:05;;;;;;;15.45;9.35;;;;;;;12.40;58.40;100745.63;5034141;28;20128;-51
2023/04/14 05:28:31;;;;;;;42.53;21.65;;;;;;;12.39;58.54;100746.56;5042484;28;20032;-47
2023/04/14 05:30:56;;;;;;;21.27;12.00;;;;;;;12.40;58.55;100742.13;5040565;28;20030;-49
2023/04/14 05:33:22;;;;;;;20.38;10.15;;;;;;;12.38;58.90;100744.03;5039693;28;20102;-48
2023/04/14 05:35:49;;;;;;;15.90;9.70;;;;;;;12.33;58.84;100739.03;5044763;28;20090;-47
2023/04/14 05:38:16;;;;;;;20.35;10.57;;;;;;;12.29;58.87;100729.66;5045732;28;20071;-48
2023/04/14 05:40:41;;;;;;;20.42;10.88;;;;;;;12.28;59.13;100730.59;5040951;28;20021;-47
2023/04/14 05:43:07;;;;;;;19.20;10.65;;;;;;;12.27;59.23;100724.44;5029008;28;20144;-50
2023/04/14 05:45:32;;;;;;;20.10;11.30;;;;;;;12.27;59.39;100723.63;5037209;28;20590;-49
2023/04/14 05:47:57;;;;;;;16.55;10.57;;;;;;;12.23;59.33;100712.44;5041597;28;20032;-48
2023/04/14 05:50:23;;;;;;;17.42;10.30;;;;;;;12.20;59.63;100709.97;5038125;28;20040;-48
2023/04/14 05:52:49;;;;;;;16.23;11.05;;;;;;;12.18;59.66;100707.44;5035266;28;20436;-52
2023/04/14 05:55:15;;;;;;;16.20;11.10;;;;;;;12.16;59.82;100709.34;5026896;28;20025;-50
2023/04/14 05:57:40;;;;;;;16.30;11.45;;;;;;;12.18;59.97;100702.16;5035120;28;20047;-52
2023/04/14 06:00:07;;;;;;;21.58;11.77;;;;;;;12.16;59.90;100706.72;5040405;28;20135;-48
2023/04/14 06:02:32;;;;;;;15.05;10.38;;;;;;;12.14;60.31;100711.22;5040267;28;20121;-50
2023/04/14 06:05:01;;;;;;;16.02;10.23;;;;;;;12.09;60.48;100700.13;5044253;28;20052;-50
2023/04/14 06:07:27;;;;;;;19.50;12.13;;;;;;;12.12;60.45;100706.97;5045545;28;20515;-49
2023/04/14 06:09:53;;;;;;;22.08;10.77;;;;;;;12.12;60.46;100694.66;5045481;28;20179;-51
2023/04/14 06:12:19;;;;;;;18.55;11.30;;;;;;;12.15;60.79;100691.81;5040132;28;20021;-50
2023/04/14 06:14:44;;;;;;;16.55;11.48;;;;;;;12.13;60.82;100695.47;5043766;28;20493;-48
2023/04/14 06:17:10;;;;;;;18.75;11.00;;;;;;;12.14;60.94;100694.53;5040111;28;20032;-49
2023/04/14 06:19:36;;;;;;;20.38;10.68;;;;;;;12.14;60.82;100691.91;5040988;28;20029;-50
2023/04/14 06:22:08;;;;;;;17.52;11.20;;;;;;;12.14;60.80;100698.03;5046114;28;20475;-49
2023/04/14 06:24:34;;;;;;;19.58;10.55;;;;;;;12.12;60.74;100705.19;5042730;28;20047;-48
2023/04/14 06:27:02;;;;;;;19.27;11.05;;;;;;;12.11;60.82;100705.28;5039976;28;20094;-50
2023/04/14 06:29:29;;;;;;;22.30;12.23;;;;;;;12.09;60.89;100705.41;5038050;28;20026;-51
2023/04/14 06:31:55;;;;;;;18.38;11.43;;;;;;;12.07;60.89;100702.00;5039570;28;20040;-51
2023/04/14 06:34:20;;;;;;;21.25;9.75;;;;;;;12.00;61.25;100698.91;5044166;28;20036;-50
2023/04/14 06:36:46;;;;;;;16.20;10.57;;;;;;;11.95;61.28;100697.50;5041927;28;20557;-48
2023/04/14 06:39:12;;;;;;;20.00;10.88;;;;;;;11.95;61.42;100697.50;5038919;28;20033;-48
2023/04/14 06:41:37;;;;;;;20.17;10.35;;;;;;;11.95;61.57;100697.50;5037723;28;20047;-52
2023/04/14 06:44:03;;;;;;;18.15;9.98;;;;;;;11.98;61.57;100694.66;5041554;28;20426;-51
2023/04/14 06:46:28;;;;;;;15.50;9.00;;;;;;;11.98;61.55;100692.03;5041107;28;20387;-48
2023/04/14 06:48:54;;;;;;;19.38;10.48;;;;;;;11.98;61.73;100687.63;5042951;28;20416;-48
2023/04/14 06:51:19;;;;;;;20.25;11.02;;;;;;;11.99;61.84;100688.47;5036421;28;20399;-48
2023/04/14 06:53:45;;;;;;;18.30;11.02;;;;;;;11.97;61.68;100690.34;5030053;28;20040;-49
2023/04/14 06:56:10;;;;;;;17.33;9.57;;;;;;;11.96;61.65;100693.91;5025713;28;20085;-50
2023/04/14 06:58:35;;;;;;;19.75;11.25;;;;;;;11.94;61.86;100698.44;5029300;28;20086;-50
2023/04/14 07:01:02;;;;;;;21.60;11.40;;;;;;;11.90;62.16;100693.34;5035882;28;20116;-47
2023/04/14 07:03:29;;;;;;;24.88;12.00;;;;;;;11.90;62.18;100693.34;5043376;28;21191;-52
2023/04/14 07:06:02;;;;;;;21.73;12.55;;;;;;;11.94;62.60;100695.81;5038579;28;20036;-51
2023/04/14 07:08:31;;;;;;;22.73;11.95;;;;;;;11.88;62.17;100686.50;5028821;28;20033;-49
2023/04/14 07:11:07;;;;;;;18.85;11.57;;;;;;;11.84;62.75;100691.13;5035080;28;20032;-53
2023/04/14 07:13:34;;;;;;;21.77;13.70;;;;;;;11.84;62.53;100693.78;5042956;28;20033;-50
2023/04/14 07:16:01;;;;;;;22.75;13.07;;;;;;;11.86;62.77;100696.28;5024811;28;20028;-50
2023/04/14 07:18:27;;;;;;;23.55;12.48;;;;;;;11.90;62.62;100696.00;5030679;28;20115;-51
2023/04/14 07:20:53;;;;;;;28.70;14.35;;;;;;;11.92;62.78;100695.91;5034954;28;20131;-52
2023/04/14 07:23:20;;;;;;;26.38;14.15;;;;;;;11.96;62.69;100696.56;5023701;28;24950;-52
2023/04/14 07:25:50;;;;;;;24.20;12.85;;;;;;;11.99;63.09;100689.31;5031821;28;20030;-49
2023/04/14 07:28:16;;;;;;;24.02;13.77;;;;;;;11.99;63.29;100693.75;5042346;28;20025;-55
2023/04/14 07:30:42;;;;;;;27.10;13.85;;;;;;;12.00;62.98;100692.81;5038308;28;20037;-49
2023/04/14 07:33:07;;;;;;;24.25;12.43;;;;;;;12.02;63.13;100697.03;5041877;28;20078;-53
2023/04/14 07:35:33;;;;;;;23.42;13.10;;;;;;;12.00;63.36;100692.81;5035952;28;20041;-53
2023/04/14 07:37:58;;;;;;;22.35;12.93;;;;;;;11.98;63.53;100692.91;5039905;28;20024;-53
2023/04/14 07:40:24;;;;;;;25.35;12.13;;;;;;;11.96;63.53;100686.00;5037581;28;20033;-51
2023/04/14 07:42:50;;;;;;;22.77;13.60;;;;;;;11.93;63.55;100683.56;5038597;28;20036;-50
2023/04/14 07:45:16;;;;;;;22.70;13.05;;;;;;;11.98;63.78;100679.72;5030963;28;20028;-47
2023/04/14 07:47:41;;;;;;;20.50;12.30;;;;;;;11.99;63.64;100686.69;5033989;28;20027;-49
2023/04/14 07:50:07;;;;;;;24.88;13.20;;;;;;;11.98;64.02;100686.75;5035582;28;20036;-50
2023/04/14 07:52:32;;;;;;;22.10;12.73;;;;;;;11.98;63.80;100692.91;5022568;28;20132;-54
2023/04/14 07:54:58;;;;;;;21.45;12.20;;;;;;;12.01;63.94;100695.34;5025874;28;20091;-50
2023/04/14 07:57:23;;;;;;;19.33;11.68;;;;;;;12.05;63.94;100695.97;5029420;28;20569;-47
2023/04/14 07:59:48;;;;;;;21.17;13.82;;;;;;;12.08;63.79;100693.16;5034110;28;20067;-53
2023/04/14 08:02:14;;;;;;;21.30;13.15;;;;;;;12.06;63.88;100687.13;5033799;28;20111;-52
2023/04/14 08:04:40;;;;;;;28.55;15.00;;;;;;;12.04;63.92;100683.75;5033438;28;20032;-52
2023/04/14 08:07:05;;;;;;;26.50;14.35;;;;;;;12.02;64.03;100677.75;5039707;28;20509;-52
2023/04/14 08:09:31;;;;;;;30.05;15.52;;;;;;;12.00;64.06;100679.63;5031118;28;20056;-51
2023/04/14 08:11:56;;;;;;;27.00;16.13;;;;;;;11.98;64.16;100670.94;5033564;28;20411;-53
2023/04/14 08:14:22;;;;;;;25.75;14.35;;;;;;;11.96;64.19;100678.09;5032954;28;20087;-52
2023/04/14 08:16:48;;;;;;;31.20;15.77;;;;;;;11.93;64.37;100673.88;5031522;28;20088;-50
2023/04/14 08:19:14;;;;;;;28.85;15.80;;;;;;;11.96;64.35;100675.47;5039552;28;20036;-50
2023/04/14 08:21:39;;;;;;;27.83;14.90;;;;;;;11.99;64.45;100673.50;5039122;28;20040;-50
2023/04/14 08:24:05;;;;;;;29.25;15.63;;;;;;;12.04;64.26;100671.41;5037811;28;20025;-50
2023/04/14 08:26:30;;;;;;;27.23;14.50;;;;;;;12.06;64.39;100679.22;5045243;28;20033;-50
2023/04/14 08:28:56;;;;;;;25.45;13.45;;;;;;;12.08;64.67;100669.41;5034255;28;20152;-48
2023/04/14 08:31:23;;;;;;;26.42;15.30;;;;;;;12.12;64.42;100670.91;5039754;28;20124;-50
2023/04/14 08:33:48;;;;;;;27.88;14.25;;;;;;;12.10;64.74;100669.34;5041886;28;20027;-49
2023/04/14 08:36:14;;;;;;;41.05;21.92;;;;;;;12.08;64.53;100666.78;5036246;28;20032;-54
2023/04/14 08:38:39;;;;;;;23.40;13.10;;;;;;;12.01;64.79;100670.78;5038430;28;20037;-49
2023/04/14 08:41:07;;;;;;;22.00;12.07;;;;;;;11.89;65.00;100662.66;5036384;28;20029;-53
2023/04/14 08:43:34;;;;;;;15.65;8.80;;;;;;;11.84;65.61;100659.50;5038756;28;20072;-53
2023/04/14 08:46:00;;;;;;;24.45;12.43;;;;;;;11.80;65.34;100654.53;5038518;28;20631;-52
2023/04/14 08:48:29;;;;;;;31.10;14.57;;;;;;;11.78;65.43;100651.97;5043565;28;20037;-49
2023/04/14 08:51:27;;;;;;;30.30;15.50;;;;;;;11.66;66.76;100656.22;5033100;28;20021;-49
2023/04/14 08:53:54;;;;;;;28.20;14.07;;;;;;;11.76;65.39;100664.41;5036249;28;20036;-54
2023/04/14 08:56:23;;;;;;;25.45;13.40;;;;;;;11.80;65.43;100660.63;5031268;28;20037;-51
2023/04/14 08:58:49;;;;;;;25.25;13.70;;;;;;;11.74;65.52;100663.66;5036050;28;20494;-51
2023/04/14 09:01:15;;;;;;;36.05;13.55;;;;;;;11.61;66.17;100652.19;5036314;28;20042;-51
2023/04/14 09:03:42;;;;;;;23.48;12.85;;;;;;;11.58;65.79;100669.06;5038775;28;20033;-51
2023/04/14 09:06:08;;;;;;;21.63;13.60;;;;;;;11.55;65.79;100653.44;5029182;28;20040;-52
2023/04/14 09:08:34;;;;;;;22.35;13.13;;;;;;;11.52;65.94;100658.91;5037624;28;20033;-52
2023/04/14 09:11:01;;;;;;;21.00;12.10;;;;;;;11.48;66.02;100658.25;5036045;28;20459;-51
2023/04/14 09:13:28;;;;;;;20.90;13.57;;;;;;;11.46;65.82;100657.50;5039014;28;20698;-53
2023/04/14 09:15:53;;;;;;;23.77;12.73;;;;;;;11.52;65.75;100649.22;5042597;28;20038;-51
2023/04/14 09:18:20;;;;;;;29.23;15.27;;;;;;;11.57;65.39;100652.38;5026759;28;20041;-49
2023/04/14 09:20:48;;;;;;;27.55;12.38;;;;;;;11.61;65.43;100657.47;5020274;28;20174;-51
2023/04/14 09:23:14;;;;;;;20.85;11.13;;;;;;;11.55;65.34;100646.41;5032906;28;20036;-51
2023/04/14 09:25:41;;;;;;;22.65;11.43;;;;;;;11.57;65.11;100657.66;5033727;28;20036;-52
2023/04/14 09:28:07;;;;;;;27.65;11.07;;;;;;;11.55;65.42;100643.75;5028195;28;20029;-52
2023/04/14 09:30:33;;;;;;;22.15;10.48;;;;;;;11.57;65.48;100641.84;5034768;28;20040;-51
2023/04/14 09:33:18;;;;;;;17.83;9.68;;;;;;;11.61;65.77;100646.94;5034223;28;20498;-51
2023/04/14 09:35:46;;;;;;;10.48;6.65;;;;;;;11.58;65.78;100643.53;5032873;28;20063;-52
2023/04/14 09:38:11;;;;;;;17.77;9.40;;;;;;;11.65;65.53;100648.44;5036871;28;20031;-48
2023/04/14 09:40:40;;;;;;;17.45;10.57;;;;;;;11.68;65.67;100653.50;5044992;28;20103;-53
2023/04/14 09:43:05;;;;;;;19.95;10.43;;;;;;;11.70;66.11;100651.63;5041094;28;20532;-46
2023/04/14 09:45:43;;;;;;;24.48;9.95;;;;;;;11.73;66.38;100654.03;5040295;28;20044;-47
2023/04/14 09:48:11;;;;;;;17.95;9.93;;;;;;;11.80;65.69;100642.19;5038105;28;20028;-46
2023/04/14 09:51:08;;;;;;;19.58;10.50;;;;;;;11.84;65.99;100653.38;5033263;28;20044;-50
2023/04/14 09:53:39;;;;;;;19.58;10.45;;;;;;;11.83;65.82;100652.53;5032990;28;20443;-51
2023/04/14 09:56:14;;;;;;;16.00;6.82;;;;;;;11.81;66.36;100653.56;5032036;28;20108;-50
2023/04/14 09:58:44;;;;;;;18.70;9.77;;;;;;;11.79;66.09;100650.19;5031306;28;20115;-46
2023/04/14 10:01:18;;;;;;;21.00;10.50;;;;;;;11.83;65.91;100647.25;5032436;28;20033;-49
2023/04/14 10:03:48;;;;;;;19.15;10.48;;;;;;;11.88;65.99;100654.88;5035991;28;20033;-50
2023/04/14 10:06:21;;;;;;;17.25;9.70;;;;;;;11.85;66.86;100669.09;5021705;28;20033;-49
2023/04/14 10:08:49;;;;;;;19.25;10.07;;;;;;;11.81;66.14;100654.41;5032793;28;20088;-50
2023/04/14 10:11:18;;;;;;;21.73;10.20;;;;;;;11.85;65.93;100650.66;5039891;28;20043;-48
2023/04/14 10:13:49;;;;;;;19.35;11.45;;;;;;;11.81;66.02;100656.19;5042172;28;20037;-50
2023/04/14 10:16:15;;;;;;;16.88;9.63;;;;;;;11.80;66.13;100658.00;5030174;28;20039;-52
2023/04/14 10:18:41;;;;;;;26.98;14.93;;;;;;;11.82;66.09;100656.09;5044211;28;20040;-50
2023/04/14 10:21:08;;;;;;;20.08;11.07;;;;;;;11.88;65.81;100650.41;5042843;28;20147;-49
2023/04/14 10:23:37;;;;;;;14.15;8.98;;;;;;;11.90;65.74;100656.44;5042110;28;20033;-51
2023/04/14 10:26:02;;;;;;;17.42;9.93;;;;;;;11.88;65.89;100658.34;5041963;28;20025;-49
2023/04/14 10:28:29;;;;;;;22.65;11.00;;;;;;;11.84;66.21;100656.88;5046876;28;20029;-49
2023/04/14 10:30:56;;;;;;;22.50;12.40;;;;;;;11.82;66.50;100650.84;5036032;28;20028;-46
2023/04/14 10:33:23;;;;;;;19.95;10.57;;;;;;;11.84;66.45;100656.00;5044525;28;21030;-47
2023/04/14 10:35:56;;;;;;;23.17;11.90;;;;;;;11.87;66.23;100663.72;5045848;28;20086;-47
2023/04/14 10:38:21;;;;;;;23.75;12.27;;;;;;;11.85;66.50;100658.56;5039706;28;20029;-46
2023/04/14 10:40:50;;;;;;;22.38;12.25;;;;;;;11.89;66.69;100657.38;5039268;28;20073;-50
2023/04/14 10:43:16;;;;;;;20.08;11.63;;;;;;;11.86;66.83;100660.25;5037791;28;20048;-52
2023/04/14 10:45:58;;;;;;;23.17;12.38;;;;;;;11.80;68.10;100651.88;5030511;28;20480;-49
2023/04/14 10:48:24;;;;;;;24.57;12.97;;;;;;;11.82;67.48;100656.09;5037340;28;20039;-51
2023/04/14 10:50:54;;;;;;;26.15;13.07;;;;;;;11.79;68.06;100658.09;5043223;28;20105;-49
2023/04/14 10:53:23;;;;;;;26.83;13.32;;;;;;;11.80;67.89;100652.72;5043535;28;20378;-48
2023/04/14 10:55:54;;;;;;;22.63;11.82;;;;;;;11.85;67.81;100650.66;5037985;28;20040;-50
2023/04/14 10:58:22;;;;;;;22.35;13.35;;;;;;;11.84;68.32;100654.22;5034148;28;20037;-51
2023/04/14 11:00:47;;;;;;;21.08;9.07;;;;;;;11.82;68.54;100648.19;5038250;28;20079;-51
2023/04/14 11:03:16;;;;;;;25.85;14.95;;;;;;;11.82;68.48;100657.88;5046391;28;20451;-48
2023/04/14 11:05:50;;;;;;;24.75;13.68;;;;;;;11.81;68.77;100646.50;5039980;28;20020;-48
2023/04/14 11:08:28;;;;;;;28.05;12.43;;;;;;;11.83;68.63;100647.25;5040301;28;20032;-51
2023/04/14 11:11:01;;;;;;;34.45;17.77;;;;;;;11.90;67.74;100651.16;5037525;28;20119;-52
2023/04/14 11:13:28;;;;;;;25.80;13.02;;;;;;;11.93;68.30;100647.50;5042869;28;20120;-47
2023/04/14 11:16:03;;;;;;;26.63;13.10;;;;;;;11.97;67.77;100642.88;5035457;28;20064;-49
2023/04/14 11:18:28;;;;;;;23.05;12.88;;;;;;;11.97;68.04;100641.06;5043741;28;20647;-49
2023/04/14 11:21:08;;;;;;;23.13;13.07;;;;;;;11.87;68.48;100643.44;5040908;28;20041;-48
2023/04/14 11:23:35;;;;;;;22.83;13.38;;;;;;;11.95;68.39;100644.75;5039196;28;20086;-46
2023/04/14 11:26:03;;;;;;;23.50;13.07;;;;;;;12.02;68.27;100651.38;5038524;28;20024;-47
2023/04/14 11:28:34;;;;;;;23.15;13.70;;;;;;;12.08;68.16;100650.13;5048430;28;20332;-48
2023/04/14 11:31:02;;;;;;;16.50;8.52;;;;;;;12.09;68.17;100647.38;5053767;28;20060;-46
2023/04/14 11:33:33;;;;;;;30.33;15.80;;;;;;;12.13;68.03;100648.88;5043288;28;20044;-47
2023/04/14 11:36:00;;;;;;;27.95;14.98;;;;;;;12.18;67.87;100646.75;5040062;28;20032;-47
2023/04/14 11:38:26;;;;;;;25.58;13.88;;;;;;;12.19;67.81;100634.44;5043105;28;20135;-46
2023/04/14 11:40:52;;;;;;;25.17;13.77;;;;;;;12.20;68.36;100644.03;5038391;28;20033;-46
2023/04/14 11:43:19;;;;;;;17.73;9.45;;;;;;;12.17;68.75;100631.91;5038353;28;20048;-46
2023/04/14 11:45:46;;;;;;;21.55;12.95;;;;;;;12.21;68.04;100611.44;5043843;28;20029;-49
2023/04/14 11:48:15;;;;;;;27.38;13.98;;;;;;;12.21;68.38;100603.53;5042192;28;20037;-47
2023/04/14 11:50:41;;;;;;;26.58;14.88;;;;;;;12.24;68.35;100603.31;5038892;28;20085;-52
2023/04/14 11:53:11;;;;;;;32.30;15.27;;;;;;;12.27;68.23;100602.25;5042965;28;20025;-49
2023/04/14 11:55:44;;;;;;;23.98;15.50;;;;;;;12.28;68.36;100603.94;5044900;28;20037;-51
2023/04/14 11:58:11;;;;;;;24.77;15.65;;;;;;;12.28;68.59;100611.88;5043486;28;20495;-47
2023/04/14 12:00:37;;;;;;;26.15;15.13;;;;;;;12.32;68.53;100589.63;5042316;28;20065;-50
2023/04/14 12:03:03;;;;;;;28.50;15.63;;;;;;;12.33;68.92;100599.19;5046885;28;20124;-49
2023/04/14 12:05:30;;;;;;;24.63;14.45;;;;;;;12.31;68.96;100593.19;5040710;28;20081;-48